createdAt,value
2023-01-28T00:00:48.683Z,1.81
2023-01-28T00:01:51.114Z,1.81
2023-01-28T00:02:53.552Z,1.86
2023-01-28T00:03:56.025Z,1.78
2023-01-28T00:04:58.426Z,1.76
2023-01-28T00:06:06.456Z,1.79
2023-01-28T00:07:09.025Z,1.83
2023-01-28T00:08:13.164Z,1.80
2023-01-28T00:09:15.788Z,1.72
2023-01-28T00:10:18.851Z,1.85
2023-01-28T00:11:22.682Z,1.81
2023-01-28T00:12:25.247Z,1.88
2023-01-28T00:13:28.312Z,1.96
2023-01-28T00:14:30.704Z,1.87
2023-01-28T00:15:33.514Z,1.88
2023-01-28T00:16:36.327Z,1.83
2023-01-28T00:17:39.297Z,1.84
2023-01-28T00:18:41.751Z,1.79
2023-01-28T00:19:45.064Z,1.78
2023-01-28T00:21:06.817Z,1.80
2023-01-28T00:22:09.172Z,1.73
2023-01-28T00:23:11.456Z,1.71
2023-01-28T00:24:13.900Z,1.70
2023-01-28T00:25:17.114Z,1.70
2023-01-28T00:26:19.704Z,1.73
2023-01-28T00:27:22.696Z,1.73
2023-01-28T00:28:25.143Z,1.78
2023-01-28T00:29:27.713Z,1.70
2023-01-28T00:30:29.975Z,1.68
2023-01-28T00:31:34.563Z,1.70
2023-01-28T00:32:36.977Z,1.67
2023-01-28T00:33:39.374Z,1.65
2023-01-28T00:34:41.857Z,1.72
2023-01-28T00:35:44.420Z,1.70
2023-01-28T00:36:57.435Z,1.70
2023-01-28T00:38:00.484Z,1.68
2023-01-28T00:39:03.920Z,1.69
2023-01-28T00:40:06.894Z,1.78
2023-01-28T00:41:16.332Z,1.68
2023-01-28T00:42:18.636Z,1.64
2023-01-28T00:43:20.997Z,1.62
2023-01-28T00:44:23.378Z,1.61
2023-01-28T00:45:25.804Z,1.64
2023-01-28T00:46:28.575Z,1.67
2023-01-28T00:47:31.040Z,1.65
2023-01-28T00:48:34.557Z,1.68
2023-01-28T00:49:37.549Z,1.64
2023-01-28T00:50:40.504Z,1.58
2023-01-28T00:51:43.033Z,1.60
2023-01-28T00:52:45.371Z,1.61
2023-01-28T00:53:47.802Z,1.68
2023-01-28T00:54:50.174Z,1.70
2023-01-28T00:55:52.940Z,1.66
2023-01-28T00:56:55.883Z,1.65
2023-01-28T00:57:58.289Z,1.61
2023-01-28T00:59:00.977Z,1.67
2023-01-28T01:00:04.520Z,1.74
2023-01-28T01:01:14.807Z,1.72
2023-01-28T01:02:18.364Z,1.67
2023-01-28T01:03:21.430Z,1.64
2023-01-28T01:04:27.135Z,1.64
2023-01-28T01:05:30.212Z,1.70
2023-01-28T01:06:35.629Z,1.74
2023-01-28T01:07:44.156Z,1.72
2023-01-28T01:08:50.704Z,1.69
2023-01-28T01:09:53.681Z,1.68
2023-01-28T01:10:59.401Z,1.71
2023-01-28T01:12:02.560Z,1.67
2023-01-28T01:13:08.593Z,1.73
2023-01-28T01:14:11.517Z,1.77
2023-01-28T01:15:17.264Z,1.74
2023-01-28T01:16:19.666Z,1.77
2023-01-28T01:17:32.027Z,1.76
2023-01-28T01:18:36.012Z,1.78
2023-01-28T01:19:38.423Z,1.77
2023-01-28T01:20:46.331Z,1.78
2023-01-28T01:21:50.907Z,1.82
2023-01-28T01:22:53.751Z,1.80
2023-01-28T01:23:56.510Z,1.78
2023-01-28T01:24:58.895Z,1.82
2023-01-28T01:26:01.237Z,1.80
2023-01-28T01:27:06.234Z,1.81
2023-01-28T01:28:08.723Z,1.82
2023-01-28T01:29:11.089Z,1.84
2023-01-28T01:30:13.939Z,1.92
2023-01-28T01:31:19.225Z,1.89
2023-01-28T01:32:22.495Z,1.87
2023-01-28T01:33:24.821Z,1.87
2023-01-28T01:34:27.204Z,1.91
2023-01-28T01:35:30.260Z,1.86
2023-01-28T01:36:32.883Z,1.81
2023-01-28T01:37:36.454Z,1.89
2023-01-28T01:38:39.429Z,1.78
2023-01-28T01:39:42.047Z,1.81
2023-01-28T01:40:44.934Z,1.84
2023-01-28T01:41:47.419Z,1.85
2023-01-28T01:42:49.976Z,1.83
2023-01-28T01:43:59.153Z,1.86
2023-01-28T01:45:08.320Z,1.82
2023-01-28T01:46:10.813Z,1.86
2023-01-28T01:47:14.326Z,1.87
2023-01-28T01:48:21.748Z,1.83
2023-01-28T01:49:28.659Z,1.82
2023-01-28T01:50:35.574Z,1.89
2023-01-28T01:51:38.364Z,1.81
2023-01-28T01:52:41.450Z,1.90
2023-01-28T01:53:51.607Z,1.86
2023-01-28T01:54:59.524Z,1.81
2023-01-28T01:56:07.460Z,1.79
2023-01-28T01:57:15.474Z,1.77
2023-01-28T01:58:21.823Z,1.84
2023-01-28T01:59:33.062Z,1.83
2023-01-28T02:00:35.447Z,1.86
2023-01-28T02:01:37.845Z,1.82
2023-01-28T02:02:43.491Z,1.83
2023-01-28T02:04:07.595Z,1.82
2023-01-28T02:05:13.114Z,1.77
2023-01-28T02:06:16.533Z,1.79
2023-01-28T02:07:20.203Z,1.81
2023-01-28T02:08:22.786Z,1.89
2023-01-28T02:09:30.807Z,1.82
2023-01-28T02:10:33.215Z,1.85
2023-01-28T02:11:35.919Z,1.84
2023-01-28T02:12:43.599Z,1.80
2023-01-28T02:13:50.486Z,1.88
2023-01-28T02:15:00.860Z,1.81
2023-01-28T02:16:04.857Z,1.81
2023-01-28T02:17:07.856Z,1.78
2023-01-28T02:18:10.489Z,1.81
2023-01-28T02:19:13.197Z,1.79
2023-01-28T02:20:27.059Z,1.80
2023-01-28T02:21:29.419Z,1.80
2023-01-28T02:22:40.629Z,1.81
2023-01-28T02:23:51.982Z,1.76
2023-01-28T02:25:10.063Z,1.74
2023-01-28T02:26:18.402Z,1.76
2023-01-28T02:27:42.348Z,1.78
2023-01-28T02:29:03.223Z,1.83
2023-01-28T02:30:16.072Z,1.83
2023-01-28T02:31:29.603Z,1.82
2023-01-28T02:32:40.547Z,1.81
2023-01-28T02:34:11.419Z,1.80
2023-01-28T02:35:29.319Z,1.79
2023-01-28T02:36:40.249Z,1.77
2023-01-28T02:37:53.324Z,1.81
2023-01-28T02:39:00.867Z,1.83
2023-01-28T02:40:12.411Z,1.84
2023-01-28T02:41:29.919Z,1.84
2023-01-28T02:42:36.749Z,1.86
2023-01-28T02:43:42.322Z,1.81
2023-01-28T02:44:45.435Z,1.79
2023-01-28T02:46:06.446Z,1.78
2023-01-28T02:47:31.693Z,1.78
2023-01-28T02:48:34.946Z,1.82
2023-01-28T02:50:05.247Z,1.80
2023-01-28T02:51:22.138Z,1.73
2023-01-28T02:52:52.679Z,1.74
2023-01-28T02:54:09.206Z,1.83
2023-01-28T02:55:37.762Z,1.82
2023-01-28T02:56:55.408Z,1.83
2023-01-28T02:58:11.606Z,1.79
2023-01-28T02:59:34.107Z,1.81
2023-01-28T03:01:19.260Z,1.83
2023-01-28T03:02:40.590Z,1.84
2023-01-28T03:04:35.592Z,1.81
2023-01-28T03:06:07.031Z,1.80
2023-01-28T03:07:12.501Z,1.78
2023-01-28T03:08:38.562Z,1.78
2023-01-28T03:09:43.588Z,1.78
2023-01-28T03:10:45.921Z,1.76
2023-01-28T03:12:20.530Z,1.79
2023-01-28T03:13:44.680Z,1.79
2023-01-28T03:15:32.503Z,1.79
2023-01-28T03:16:53.929Z,1.81
2023-01-28T03:18:28.058Z,1.80
2023-01-28T03:19:50.073Z,1.79
2023-01-28T03:21:22.886Z,1.80
2023-01-28T03:22:47.769Z,1.79
2023-01-28T03:24:37.684Z,1.87
2023-01-28T03:26:04.690Z,1.82
2023-01-28T03:27:33.352Z,1.85
2023-01-28T03:29:01.552Z,1.81
2023-01-28T03:30:31.670Z,1.80
2023-01-28T03:31:56.876Z,1.78
2023-01-28T03:33:18.746Z,1.82
2023-01-28T03:34:41.285Z,1.83
2023-01-28T03:36:05.307Z,1.75
2023-01-28T03:37:09.210Z,1.79
2023-01-28T03:38:24.087Z,1.77
2023-01-28T03:39:29.304Z,1.72
2023-01-28T03:40:32.226Z,1.79
2023-01-28T03:41:34.646Z,1.75
2023-01-28T03:42:37.663Z,1.79
2023-01-28T03:44:18.546Z,1.77
2023-01-28T03:45:22.353Z,1.82
2023-01-28T03:46:25.337Z,1.76
2023-01-28T03:47:30.570Z,1.77
2023-01-28T03:48:33.550Z,1.82
2023-01-28T03:49:44.787Z,1.84
2023-01-28T03:50:48.410Z,1.80
2023-01-28T03:51:50.829Z,1.79
2023-01-28T03:52:53.267Z,1.81
2023-01-28T03:54:06.186Z,1.73
2023-01-28T03:55:14.273Z,1.76
2023-01-28T03:56:24.565Z,1.82
2023-01-28T03:57:31.656Z,1.78
2023-01-28T03:58:52.555Z,1.80
2023-01-28T03:59:55.234Z,1.78
2023-01-28T04:00:58.113Z,1.82
2023-01-28T04:02:03.508Z,1.86
2023-01-28T04:03:16.454Z,1.77
2023-01-28T04:04:41.526Z,1.76
2023-01-28T04:05:59.059Z,1.81
2023-01-28T04:07:04.282Z,1.80
2023-01-28T04:08:36.065Z,1.77
2023-01-28T04:10:08.937Z,1.77
2023-01-28T04:11:26.285Z,1.87
2023-01-28T04:12:29.499Z,1.89
2023-01-28T04:13:31.923Z,1.86
2023-01-28T04:14:35.904Z,1.80
2023-01-28T04:16:03.685Z,1.81
2023-01-28T04:17:10.914Z,1.80
2023-01-28T04:18:14.314Z,1.75
2023-01-28T04:19:17.264Z,1.75
2023-01-28T04:20:21.009Z,1.74
2023-01-28T04:21:23.458Z,1.77
2023-01-28T04:22:26.014Z,1.79
2023-01-28T04:23:29.960Z,2.00
2023-01-28T04:24:32.266Z,1.88
2023-01-28T04:25:34.845Z,1.85
2023-01-28T04:26:40.227Z,1.77
2023-01-28T04:27:42.754Z,1.77
2023-01-28T04:28:55.351Z,1.77
2023-01-28T04:29:57.893Z,1.83
2023-01-28T04:31:24.043Z,1.77
2023-01-28T04:32:46.962Z,1.79
2023-01-28T04:34:06.728Z,1.74
2023-01-28T04:35:30.186Z,1.88
2023-01-28T04:36:41.605Z,1.81
2023-01-28T04:38:04.240Z,1.78
2023-01-28T04:39:27.486Z,1.86
2023-01-28T04:40:53.685Z,1.78
2023-01-28T04:42:02.195Z,1.80
2023-01-28T04:43:32.074Z,1.78
2023-01-28T04:45:13.266Z,1.80
2023-01-28T04:46:34.218Z,1.82
2023-01-28T04:47:57.294Z,1.79
2023-01-28T04:49:12.391Z,1.82
2023-01-28T04:50:26.312Z,1.82
2023-01-28T04:51:44.683Z,1.86
2023-01-28T04:53:13.810Z,1.82
2023-01-28T04:54:36.295Z,1.80
2023-01-28T04:55:40.502Z,1.79
2023-01-28T04:56:42.994Z,1.87
2023-01-28T04:57:48.268Z,1.95
2023-01-28T04:58:50.710Z,1.88
2023-01-28T04:59:53.264Z,1.85
2023-01-28T05:00:59.516Z,1.82
2023-01-28T05:02:02.511Z,1.78
2023-01-28T05:03:04.878Z,1.77
2023-01-28T05:04:13.328Z,1.81
2023-01-28T05:05:16.116Z,1.82
2023-01-28T05:06:30.355Z,1.84
2023-01-28T05:07:37.233Z,1.84
2023-01-28T05:08:39.685Z,1.81
2023-01-28T05:09:42.411Z,1.86
2023-01-28T05:10:45.291Z,1.84
2023-01-28T05:11:47.684Z,1.87
2023-01-28T05:12:50.769Z,1.85
2023-01-28T05:13:55.351Z,1.82
2023-01-28T05:14:58.377Z,1.87
2023-01-28T05:16:01.000Z,1.81
2023-01-28T05:17:03.568Z,1.80
2023-01-28T05:18:06.492Z,1.79
2023-01-28T05:19:14.557Z,1.80
2023-01-28T05:20:18.629Z,1.77
2023-01-28T05:21:24.128Z,1.81
2023-01-28T05:22:33.931Z,1.79
2023-01-28T05:23:54.945Z,1.86
2023-01-28T05:24:57.512Z,1.90
2023-01-28T05:25:59.868Z,1.87
2023-01-28T05:27:02.244Z,1.83
2023-01-28T05:28:05.957Z,1.85
2023-01-28T05:29:08.763Z,1.81
2023-01-28T05:30:11.676Z,1.78
2023-01-28T05:31:14.375Z,1.78
2023-01-28T05:32:16.845Z,1.90
2023-01-28T05:33:19.595Z,1.84
2023-01-28T05:34:22.198Z,1.84
2023-01-28T05:35:25.966Z,1.84
2023-01-28T05:36:29.037Z,1.92
2023-01-28T05:37:32.267Z,1.86
2023-01-28T05:38:34.795Z,1.82
2023-01-28T05:39:37.430Z,1.79
2023-01-28T05:40:40.999Z,1.80
2023-01-28T05:41:43.590Z,1.83
2023-01-28T05:42:46.457Z,1.95
2023-01-28T05:44:15.014Z,1.97
2023-01-28T05:45:33.136Z,1.91
2023-01-28T05:46:45.580Z,1.90
2023-01-28T05:48:08.901Z,1.91
2023-01-28T05:49:26.533Z,1.87
2023-01-28T05:50:44.252Z,1.87
2023-01-28T05:51:50.441Z,1.88
2023-01-28T05:52:55.686Z,1.86
2023-01-28T05:54:03.024Z,1.85
2023-01-28T05:55:07.904Z,1.81
2023-01-28T05:56:10.866Z,1.88
2023-01-28T05:57:14.895Z,1.87
2023-01-28T05:58:19.660Z,1.86
2023-01-28T05:59:22.306Z,1.83
2023-01-28T06:00:26.333Z,1.84
2023-01-28T06:01:29.690Z,1.82
2023-01-28T06:02:32.462Z,1.81
2023-01-28T06:03:36.432Z,1.83
2023-01-28T06:04:39.412Z,1.90
2023-01-28T06:05:42.119Z,1.84
2023-01-28T06:06:45.406Z,1.87
2023-01-28T06:07:48.456Z,1.88
2023-01-28T06:08:55.286Z,1.87
2023-01-28T06:10:08.855Z,1.86
2023-01-28T06:11:11.664Z,1.84
2023-01-28T06:12:14.944Z,1.84
2023-01-28T06:13:30.089Z,1.88
2023-01-28T06:14:50.914Z,1.87
2023-01-28T06:16:11.564Z,1.87
2023-01-28T06:17:20.198Z,1.87
2023-01-28T06:18:36.647Z,1.84
2023-01-28T06:19:39.332Z,1.87
2023-01-28T06:20:43.161Z,1.89
2023-01-28T06:21:47.797Z,2.02
2023-01-28T06:22:53.837Z,2.03
2023-01-28T06:23:56.529Z,1.98
2023-01-28T06:24:59.022Z,1.98
2023-01-28T06:26:01.653Z,2.00
2023-01-28T06:27:04.126Z,1.99
2023-01-28T06:28:06.695Z,2.01
2023-01-28T06:29:09.466Z,2.01
2023-01-28T06:30:13.097Z,2.00
2023-01-28T06:31:15.929Z,2.03
2023-01-28T06:32:18.328Z,2.01
2023-01-28T06:33:21.521Z,2.05
2023-01-28T06:34:23.830Z,2.09
2023-01-28T06:35:26.187Z,2.09
2023-01-28T06:36:28.728Z,2.07
2023-01-28T06:37:31.441Z,2.07
2023-01-28T06:38:35.214Z,2.15
2023-01-28T06:39:37.665Z,2.15
2023-01-28T06:40:40.116Z,2.18
2023-01-28T06:41:42.492Z,2.20
2023-01-28T06:42:45.512Z,2.21
2023-01-28T06:43:47.983Z,2.24
2023-01-28T06:44:50.541Z,2.24
2023-01-28T06:45:52.907Z,2.25
2023-01-28T06:46:55.541Z,2.24
2023-01-28T06:47:58.315Z,2.30
2023-01-28T06:49:00.861Z,2.28
2023-01-28T06:50:03.376Z,2.28
2023-01-28T06:51:06.398Z,2.42
2023-01-28T06:52:08.709Z,2.39
2023-01-28T06:53:11.402Z,2.36
2023-01-28T06:54:13.901Z,2.40
2023-01-28T06:55:16.534Z,2.38
2023-01-28T06:56:19.077Z,2.42
2023-01-28T06:57:21.465Z,2.43
2023-01-28T06:58:25.068Z,2.43
2023-01-28T06:59:28.178Z,2.43
2023-01-28T07:00:30.838Z,2.44
2023-01-28T07:01:34.218Z,2.50
2023-01-28T07:02:37.693Z,2.47
2023-01-28T07:03:40.257Z,2.47
2023-01-28T07:04:42.525Z,2.59
2023-01-28T07:05:45.126Z,2.51
2023-01-28T07:06:47.848Z,2.50
2023-01-28T07:07:50.379Z,2.50
2023-01-28T07:08:53.420Z,2.49
2023-01-28T07:09:56.307Z,2.56
2023-01-28T07:10:59.341Z,2.60
2023-01-28T07:12:05.379Z,2.56
2023-01-28T07:13:08.520Z,2.58
2023-01-28T07:14:11.160Z,2.57
2023-01-28T07:15:15.362Z,2.55
2023-01-28T07:16:17.951Z,2.59
2023-01-28T07:17:20.363Z,2.65
2023-01-28T07:18:23.043Z,2.62
2023-01-28T07:19:25.427Z,2.64
2023-01-28T07:20:30.503Z,2.76
2023-01-28T07:21:33.308Z,2.71
2023-01-28T07:22:36.188Z,2.70
2023-01-28T07:23:40.070Z,2.78
2023-01-28T07:24:43.208Z,2.80
2023-01-28T07:25:45.798Z,2.74
2023-01-28T07:26:48.383Z,2.76
2023-01-28T07:27:53.348Z,2.78
2023-01-28T07:28:55.784Z,2.76
2023-01-28T07:29:59.471Z,2.74
2023-01-28T07:31:01.963Z,2.88
2023-01-28T07:32:07.363Z,2.88
2023-01-28T07:33:09.835Z,2.94
2023-01-28T07:34:12.229Z,2.91
2023-01-28T07:35:14.594Z,2.94
2023-01-28T07:36:17.151Z,2.96
2023-01-28T07:37:20.532Z,2.93
2023-01-28T07:38:23.117Z,2.89
2023-01-28T07:39:25.521Z,2.94
2023-01-28T07:40:29.320Z,2.89
2023-01-28T07:41:31.745Z,2.94
2023-01-28T07:42:41.191Z,2.94
2023-01-28T07:43:45.655Z,3.04
2023-01-28T07:44:48.058Z,3.01
2023-01-28T07:45:50.746Z,3.00
2023-01-28T07:46:54.528Z,3.03
2023-01-28T07:47:58.925Z,3.02
2023-01-28T07:49:01.479Z,3.02
2023-01-28T07:50:04.314Z,3.02
2023-01-28T07:51:07.216Z,3.03
2023-01-28T07:52:09.875Z,3.05
2023-01-28T07:53:12.617Z,3.03
2023-01-28T07:54:15.090Z,3.06
2023-01-28T07:55:17.975Z,3.17
2023-01-28T07:56:20.463Z,3.16
2023-01-28T07:57:25.900Z,3.18
2023-01-28T07:58:28.217Z,3.17
2023-01-28T07:59:30.610Z,3.27
2023-01-28T08:00:34.797Z,3.24
2023-01-28T08:01:39.390Z,3.33
2023-01-28T08:02:41.866Z,3.30
2023-01-28T08:03:44.606Z,3.38
2023-01-28T08:04:47.109Z,3.51
2023-01-28T08:05:53.091Z,3.41
2023-01-28T08:06:55.480Z,3.48
2023-01-28T08:07:57.957Z,3.46
2023-01-28T08:09:01.194Z,3.58
2023-01-28T08:10:03.969Z,3.57
2023-01-28T08:11:09.025Z,3.51
2023-01-28T08:12:11.597Z,3.50
2023-01-28T08:13:16.249Z,3.56
2023-01-28T08:14:18.848Z,3.52
2023-01-28T08:15:21.875Z,3.46
2023-01-28T08:16:24.494Z,3.53
2023-01-28T08:17:28.125Z,3.55
2023-01-28T08:18:30.480Z,3.55
2023-01-28T08:19:32.906Z,3.62
2023-01-28T08:20:36.642Z,3.62
2023-01-28T08:21:38.979Z,3.68
2023-01-28T08:22:41.736Z,3.59
2023-01-28T08:23:44.107Z,3.60
2023-01-28T08:24:46.513Z,3.65
2023-01-28T08:25:48.914Z,3.75
2023-01-28T08:26:51.836Z,3.67
2023-01-28T08:27:54.751Z,3.78
2023-01-28T08:28:57.565Z,3.80
2023-01-28T08:29:59.872Z,3.91
2023-01-28T08:31:02.972Z,3.87
2023-01-28T08:32:05.539Z,3.90
2023-01-28T08:33:09.741Z,3.99
2023-01-28T08:34:12.394Z,3.95
2023-01-28T08:35:14.947Z,3.97
2023-01-28T08:36:17.448Z,4.10
2023-01-28T08:37:19.917Z,4.24
2023-01-28T08:38:22.761Z,4.21
2023-01-28T08:39:25.294Z,4.28
2023-01-28T08:40:28.187Z,4.24
2023-01-28T08:41:31.155Z,4.23
2023-01-28T08:42:33.581Z,4.25
2023-01-28T08:43:35.986Z,4.37
2023-01-28T08:44:38.548Z,4.34
2023-01-28T08:45:41.739Z,4.36
2023-01-28T08:46:44.196Z,4.38
2023-01-28T08:47:55.744Z,4.43
2023-01-28T08:48:58.157Z,4.45
2023-01-28T08:50:00.530Z,4.55
2023-01-28T08:51:03.220Z,4.62
2023-01-28T08:52:05.769Z,4.70
2023-01-28T08:53:18.094Z,4.73
2023-01-28T08:54:20.687Z,4.57
2023-01-28T08:55:25.551Z,4.55
2023-01-28T08:56:27.985Z,4.48
2023-01-28T08:57:30.372Z,4.57
2023-01-28T08:58:33.495Z,4.63
2023-01-28T08:59:35.866Z,4.71
2023-01-28T09:00:40.135Z,4.67
2023-01-28T09:01:43.482Z,4.71
2023-01-28T09:02:46.129Z,4.63
2023-01-28T09:03:48.659Z,4.59
2023-01-28T09:04:51.452Z,4.58
2023-01-28T09:05:57.325Z,4.59
2023-01-28T09:07:02.150Z,4.62
2023-01-28T09:08:07.693Z,4.58
2023-01-28T09:09:10.364Z,4.54
2023-01-28T09:10:13.068Z,4.50
2023-01-28T09:11:18.317Z,4.47
2023-01-28T09:12:21.424Z,4.50
2023-01-28T09:13:24.787Z,4.45
2023-01-28T09:14:27.370Z,4.46
2023-01-28T09:15:30.520Z,4.30
2023-01-28T09:16:36.178Z,4.40
2023-01-28T09:17:40.048Z,4.32
2023-01-28T09:18:43.324Z,4.24
2023-01-28T09:19:45.895Z,4.27
2023-01-28T09:20:48.335Z,4.27
2023-01-28T09:21:51.070Z,4.31
2023-01-28T09:22:54.126Z,4.30
2023-01-28T09:23:57.064Z,4.29
2023-01-28T09:24:59.639Z,4.38
2023-01-28T09:26:03.674Z,4.33
2023-01-28T09:27:06.790Z,4.31
2023-01-28T09:28:09.351Z,4.34
2023-01-28T09:29:12.766Z,4.35
2023-01-28T09:30:15.920Z,4.23
2023-01-28T09:31:18.793Z,4.27
2023-01-28T09:32:21.518Z,4.31
2023-01-28T09:33:24.645Z,4.33
2023-01-28T09:34:27.104Z,4.38
2023-01-28T09:35:29.549Z,4.37
2023-01-28T09:36:32.856Z,4.35
2023-01-28T09:37:35.259Z,4.32
2023-01-28T09:38:38.234Z,4.50
2023-01-28T09:39:41.033Z,4.48
2023-01-28T09:40:45.136Z,4.47
2023-01-28T09:42:05.723Z,4.50
2023-01-28T09:43:34.958Z,4.45
2023-01-28T09:45:04.115Z,4.52
2023-01-28T09:46:10.482Z,4.54
2023-01-28T09:47:24.294Z,4.57
2023-01-28T09:48:33.949Z,4.70
2023-01-28T09:49:50.983Z,4.73
2023-01-28T09:50:54.977Z,4.83
2023-01-28T09:51:57.554Z,4.96
2023-01-28T09:53:06.307Z,4.86
2023-01-28T09:54:39.056Z,4.92
2023-01-28T09:55:46.535Z,4.96
2023-01-28T09:56:54.080Z,4.99
2023-01-28T09:57:57.623Z,4.96
2023-01-28T09:59:21.200Z,5.05
2023-01-28T10:00:38.648Z,4.97
2023-01-28T10:01:47.986Z,5.06
2023-01-28T10:03:02.200Z,5.07
2023-01-28T10:04:17.660Z,5.28
2023-01-28T10:05:42.533Z,5.17
2023-01-28T10:06:54.173Z,5.28
2023-01-28T10:08:17.474Z,5.18
2023-01-28T10:09:35.725Z,5.43
2023-01-28T10:10:46.196Z,5.39
2023-01-28T10:12:13.729Z,5.41
2023-01-28T10:13:29.828Z,5.66
2023-01-28T10:15:17.328Z,5.60
2023-01-28T10:16:29.622Z,5.55
2023-01-28T10:17:48.374Z,5.61
2023-01-28T10:18:56.516Z,5.76
2023-01-28T10:20:26.293Z,5.66
2023-01-28T10:21:48.753Z,5.73
2023-01-28T10:23:17.587Z,5.70
2023-01-28T10:24:47.740Z,5.63
2023-01-28T10:25:50.327Z,5.61
2023-01-28T10:26:53.342Z,5.72
2023-01-28T10:27:55.724Z,5.74
2023-01-28T10:29:05.856Z,5.61
2023-01-28T10:30:23.127Z,5.58
2023-01-28T10:31:32.636Z,5.62
2023-01-28T10:32:46.283Z,5.55
2023-01-28T10:33:48.744Z,5.45
2023-01-28T10:34:52.791Z,5.53
2023-01-28T10:35:56.669Z,5.56
2023-01-28T10:36:59.393Z,5.69
2023-01-28T10:38:08.606Z,5.54
2023-01-28T10:39:16.353Z,5.59
2023-01-28T10:40:19.355Z,5.59
2023-01-28T10:41:23.371Z,5.48
2023-01-28T10:42:34.741Z,5.55
2023-01-28T10:43:40.273Z,5.43
2023-01-28T10:44:48.677Z,5.42
2023-01-28T10:46:09.837Z,5.45
2023-01-28T10:47:30.906Z,5.57
2023-01-28T10:48:36.331Z,5.52
2023-01-28T10:49:47.015Z,5.55
2023-01-28T10:50:59.979Z,5.80
2023-01-28T10:52:11.751Z,5.71
2023-01-28T10:53:14.223Z,5.62
2023-01-28T10:54:26.219Z,5.67
2023-01-28T10:55:51.030Z,5.64
2023-01-28T10:57:02.725Z,5.55
2023-01-28T10:58:05.753Z,5.48
2023-01-28T10:59:29.813Z,5.53
2023-01-28T11:00:36.498Z,5.64
2023-01-28T11:01:45.563Z,5.57
2023-01-28T11:02:49.693Z,5.50
2023-01-28T11:03:58.472Z,5.43
2023-01-28T11:05:23.285Z,5.42
2023-01-28T11:06:28.288Z,5.32
2023-01-28T11:07:30.902Z,5.37
2023-01-28T11:08:44.698Z,5.38
2023-01-28T11:09:50.142Z,5.26
2023-01-28T11:10:54.326Z,5.38
2023-01-28T11:11:58.148Z,5.38
2023-01-28T11:13:04.890Z,5.33
2023-01-28T11:14:20.687Z,5.35
2023-01-28T11:15:23.045Z,5.47
2023-01-28T11:16:27.029Z,5.28
2023-01-28T11:17:32.190Z,5.30
2023-01-28T11:18:39.880Z,5.22
2023-01-28T11:19:42.363Z,5.29
2023-01-28T11:20:52.447Z,5.30
2023-01-28T11:21:57.094Z,5.19
2023-01-28T11:22:59.522Z,5.19
2023-01-28T11:24:06.023Z,5.17
2023-01-28T11:25:20.138Z,5.07
2023-01-28T11:26:25.847Z,5.11
2023-01-28T11:27:34.336Z,5.21
2023-01-28T11:28:42.520Z,5.23
2023-01-28T11:29:45.687Z,5.19
2023-01-28T11:30:53.571Z,5.37
2023-01-28T11:31:56.663Z,5.33
2023-01-28T11:33:07.842Z,5.16
2023-01-28T11:34:19.046Z,5.21
2023-01-28T11:35:30.988Z,5.24
2023-01-28T11:36:35.487Z,5.24
2023-01-28T11:37:38.158Z,5.31
2023-01-28T11:39:02.424Z,5.24
2023-01-28T11:40:21.357Z,5.30
2023-01-28T11:41:36.612Z,5.38
2023-01-28T11:42:39.108Z,5.19
2023-01-28T11:43:41.564Z,5.26
2023-01-28T11:44:44.598Z,5.28
2023-01-28T11:45:57.563Z,5.40
2023-01-28T11:47:12.662Z,5.30
2023-01-28T11:48:32.076Z,5.17
2023-01-28T11:49:56.396Z,5.17
2023-01-28T11:51:20.749Z,5.29
2023-01-28T11:53:05.098Z,5.30
2023-01-28T11:54:41.083Z,5.37
2023-01-28T11:56:24.112Z,5.37
2023-01-28T11:57:34.474Z,5.41
2023-01-28T11:59:16.895Z,5.24
2023-01-28T12:00:22.428Z,5.43
2023-01-28T12:01:41.787Z,5.28
2023-01-28T12:02:53.461Z,5.27
2023-01-28T12:04:33.444Z,5.41
2023-01-28T12:05:48.863Z,5.41
2023-01-28T12:07:32.568Z,5.42
2023-01-28T12:08:45.616Z,5.44
2023-01-28T12:10:07.279Z,5.45
2023-01-28T12:11:48.693Z,5.30
2023-01-28T12:13:17.689Z,5.36
2023-01-28T12:14:34.159Z,5.42
2023-01-28T12:16:14.243Z,5.29
2023-01-28T12:17:57.718Z,5.20
2023-01-28T12:19:19.855Z,5.09
2023-01-28T12:20:59.052Z,4.99
2023-01-28T12:22:01.293Z,4.83
2023-01-28T12:23:31.036Z,4.93
2023-01-28T12:24:33.381Z,4.98
2023-01-28T12:25:57.494Z,4.99
2023-01-28T12:27:33.717Z,5.01
2023-01-28T12:29:05.468Z,4.96
2023-01-28T12:30:19.741Z,4.95
2023-01-28T12:31:57.676Z,4.89
2023-01-28T12:33:02.642Z,4.92
2023-01-28T12:34:27.509Z,4.94
2023-01-28T12:35:51.357Z,4.87
2023-01-28T12:36:59.679Z,4.88
2023-01-28T12:38:12.234Z,4.80
2023-01-28T12:39:33.433Z,4.78
2023-01-28T12:40:59.562Z,4.73
2023-01-28T12:42:21.110Z,4.67
2023-01-28T12:43:29.666Z,4.68
2023-01-28T12:44:43.786Z,4.61
2023-01-28T12:45:52.777Z,4.66
2023-01-28T12:47:04.258Z,4.66
2023-01-28T12:48:27.802Z,4.64
2023-01-28T12:49:42.818Z,4.76
2023-01-28T12:50:50.494Z,4.61
2023-01-28T12:52:01.957Z,4.49
2023-01-28T12:53:28.620Z,4.57
2023-01-28T12:55:08.827Z,4.59
2023-01-28T12:56:17.675Z,4.55
2023-01-28T12:57:26.673Z,4.48
2023-01-28T12:58:40.733Z,4.50
2023-01-28T13:00:11.509Z,4.57
2023-01-28T13:01:20.307Z,4.59
2023-01-28T13:02:42.941Z,4.54
2023-01-28T13:04:10.111Z,4.47
2023-01-28T13:05:17.534Z,4.46
2023-01-28T13:07:00.361Z,4.59
2023-01-28T13:08:24.453Z,4.73
2023-01-28T13:09:28.964Z,4.67
2023-01-28T13:10:46.481Z,4.66
2023-01-28T13:11:52.331Z,4.62
2023-01-28T13:12:57.475Z,4.69
2023-01-28T13:14:00.169Z,4.69
2023-01-28T13:15:02.912Z,4.70
2023-01-28T13:16:09.138Z,4.69
2023-01-28T13:17:32.857Z,4.70
2023-01-28T13:18:40.724Z,4.66
2023-01-28T13:19:43.462Z,4.66
2023-01-28T13:20:52.992Z,4.67
2023-01-28T13:21:57.724Z,4.72
2023-01-28T13:23:21.785Z,4.77
2023-01-28T13:24:32.205Z,4.76
2023-01-28T13:25:34.931Z,4.69
2023-01-28T13:26:44.739Z,4.60
2023-01-28T13:28:02.677Z,4.70
2023-01-28T13:29:31.159Z,4.81
2023-01-28T13:30:47.052Z,4.57
2023-01-28T13:31:52.491Z,4.56
2023-01-28T13:33:01.701Z,4.66
2023-01-28T13:34:06.423Z,4.65
2023-01-28T13:35:30.949Z,4.50
2023-01-28T13:36:40.349Z,4.45
2023-01-28T13:37:48.356Z,4.40
2023-01-28T13:39:01.008Z,4.47
2023-01-28T13:40:09.537Z,4.42
2023-01-28T13:41:12.403Z,4.28
2023-01-28T13:42:23.044Z,4.32
2023-01-28T13:43:35.376Z,4.28
2023-01-28T13:44:38.383Z,4.32
2023-01-28T13:45:40.799Z,4.26
2023-01-28T13:46:43.562Z,4.33
2023-01-28T13:47:49.098Z,4.39
2023-01-28T13:48:57.271Z,4.32
2023-01-28T13:50:05.817Z,4.19
2023-01-28T13:51:24.922Z,4.21
2023-01-28T13:52:32.320Z,4.20
2023-01-28T13:53:41.114Z,4.28
2023-01-28T13:54:55.212Z,4.20
2023-01-28T13:55:59.302Z,4.32
2023-01-28T13:57:02.079Z,4.27
2023-01-28T13:58:10.258Z,4.21
2023-01-28T13:59:32.129Z,4.18
2023-01-28T14:00:57.556Z,4.15
2023-01-28T14:02:14.546Z,4.19
2023-01-28T14:03:28.965Z,4.01
2023-01-28T14:04:43.414Z,4.00
2023-01-28T14:06:04.305Z,4.08
2023-01-28T14:07:12.607Z,4.03
2023-01-28T14:08:43.908Z,4.02
2023-01-28T14:09:55.683Z,4.08
2023-01-28T14:11:01.114Z,4.07
2023-01-28T14:12:09.576Z,4.06
2023-01-28T14:13:17.546Z,4.15
2023-01-28T14:14:32.040Z,4.02
2023-01-28T14:15:37.099Z,4.05
2023-01-28T14:16:56.942Z,4.04
2023-01-28T14:18:00.872Z,4.13
2023-01-28T14:19:05.386Z,3.95
2023-01-28T14:20:18.849Z,3.93
2023-01-28T14:21:22.596Z,4.10
2023-01-28T14:22:26.483Z,4.06
2023-01-28T14:23:32.455Z,3.95
2023-01-28T14:24:38.214Z,3.93
2023-01-28T14:25:52.375Z,3.88
2023-01-28T14:27:26.668Z,3.90
2023-01-28T14:28:47.104Z,3.89
2023-01-28T14:30:17.313Z,3.80
2023-01-28T14:31:34.611Z,3.87
2023-01-28T14:32:47.165Z,3.88
2023-01-28T14:33:49.722Z,3.85
2023-01-28T14:34:53.412Z,3.73
2023-01-28T14:35:57.172Z,3.82
2023-01-28T14:37:04.827Z,3.78
2023-01-28T14:38:12.750Z,3.80
2023-01-28T14:39:26.388Z,3.79
2023-01-28T14:40:30.298Z,3.74
2023-01-28T14:41:32.976Z,3.74
2023-01-28T14:42:42.378Z,3.71
2023-01-28T14:43:44.921Z,3.71
2023-01-28T14:44:56.058Z,3.71
2023-01-28T14:46:35.596Z,3.64
2023-01-28T14:47:44.524Z,3.67
2023-01-28T14:49:18.601Z,3.72
2023-01-28T14:50:29.875Z,3.75
2023-01-28T14:51:51.472Z,3.67
2023-01-28T14:53:31.579Z,3.64
2023-01-28T14:55:13.784Z,3.67
2023-01-28T14:56:25.276Z,3.66
2023-01-28T14:57:30.520Z,3.68
2023-01-28T14:58:39.343Z,3.76
2023-01-28T14:59:54.623Z,3.63
2023-01-28T15:00:59.906Z,3.60
2023-01-28T15:02:05.089Z,3.62
2023-01-28T15:03:26.362Z,3.61
2023-01-28T15:04:31.938Z,3.60
2023-01-28T15:05:34.300Z,3.58
2023-01-28T15:06:36.818Z,3.60
2023-01-28T15:07:44.587Z,3.63
2023-01-28T15:08:48.610Z,3.57
2023-01-28T15:10:15.099Z,3.53
2023-01-28T15:11:24.634Z,3.55
2023-01-28T15:12:27.845Z,3.55
2023-01-28T15:13:37.855Z,3.56
2023-01-28T15:14:41.136Z,3.53
2023-01-28T15:15:49.970Z,3.48
2023-01-28T15:16:52.700Z,3.46
2023-01-28T15:18:08.371Z,3.54
2023-01-28T15:19:11.844Z,3.49
2023-01-28T15:20:20.655Z,3.48
2023-01-28T15:21:25.110Z,3.47
2023-01-28T15:22:29.039Z,3.44
2023-01-28T15:23:37.559Z,3.44